Odiham, United Kingdom
Current Conditions -  °F | °C
As of 9:50 AM on Sunday 25 Jan 2015 (Local Time) from EGVO Reporting Station
Broken Clouds Broken Clouds  
Wind Chill: 33°   Ceiling: 3200
Heat Index: 39°   Visibility: 6mi
Dew Point: 32°   Wind: 9mph
Humidity: 75%   Direction: 230°SW
Pressure: 30.45"   Gusts: NA
Location:  51.25°N, 0.94°W
Report Text: EGVO 250950Z 23008KT 9999 BKN032 04/M00 Q1031 BLU
Loading
Personal Weather Stations






























Interactive Weather Map New forecast layout! Learn more

10-Day Weather Forecast

Advertisements
Track Severe Weather on mobile